KNXX/NXX METAR and TAF weather

Enter ICAO airport designator
Station Type Date Time Source
KNXX METAR 2011/03/31 02:56 UTC NOAA

KNXX 310256Z 15008KT 10SM SCT042 BKN050 OVC060 04/M03 A2999 RMK RAE40 SLP165 60000 T00441028 50002 STATION CLOSED LAST


Station Type Date Time Source
KNXX Decoded METAR 2011/03/31 02:56 UTC NOAA

WILLOW GROVE NAVAL AIR STA, PA, United States (KNXX) 40-12N 075-08W 101M
Mar 30, 2011 - 10:56 PM EDT / 2011.03.31 0256 UTC
Wind: from the SSE (150 degrees) at 9 MPH (8 KT):0
Visibility: 10 mile(s):0
Sky conditions: overcast
Temperature: 39.9 F (4.4 C)
Dew Point: 27.0 F (-2.8 C)
Relative Humidity: 59%
Pressure (altimeter): 29.99 in. Hg (1015 hPa)
Pressure tendency: 0.01 inches (0.2 hPa) higher than three hours ago
ob: KNXX 310256Z 15008KT 10SM SCT042 BKN050 OVC060 04/M03 A2999 RMK RAE40 SLP165 60000 T00441028 50002 STATION CLOSED LAST
cycle: 3

Station Type Date Time Source
KNXX TAF 2011/03/31 21:03 UTC NOAA

TAF KNXX 3121/0121 06009KT 6000 BR VCSH BKN010 OVC060 640309 641208 540109 QNH2966INS
TEMPO 3121/3123 1600 RA BR BKN005 OVC030
BECMG 0100/0102 03010KT 4800 -DZ BR BKN005 OVC010 640209 641105 540109 QNH2963INS
TEMPO 0103/0109 36012G20KT 1600 RA BR OVC005 640209 500000 QNH2960INS T02/0111Z T09/0120Z


Example: see airport list